DTKA

Details ICAO DTKA (TBJ)
Name TABARKA 7 NOVEMBRE
Region Tunisia
Timezone Africa/Tunis (UTC+1.0)
Plans Departing 8
Arriving 10
Stats Elevation 230 ft / 70 m (AMSL)
Location 36.980165° 8.875125°
Runways 1
Magnetic Variation 2.174° E
Sunrise 2017-12-16 06:32:29 UTC / 2017-12-16 07:32:29 Local
Sunset 2017-12-16 16:10:31 UTC / 2017-12-16 17:10:31 Local
Advertisement - Login to hide

Runways

ID Width Length Bearing (true) Bearing (mag) Surface Threshold Offset Overrun Length
09 148 ft / 45 m 9,379 ft / 2,859 m 93.06° 90.89° Asphalt 0 ft / 0 m 230 ft / 70 m
27 148 ft / 45 m 9,379 ft / 2,859 m 273.08° 270.91° Asphalt 0 ft / 0 m 0 ft / 0 m

Approach Navaids

Runway Type Ident Frequency Range Bearing (true) Bearing (mag) Slope Elevation
27 Localiser TAB 110.70 MHz 18 nm / 33 km 273.07° 270.89° - 230 ft / 70 m (AMSL)
27 Glidescope TAB 110.70 MHz 10 nm / 19 km 273.07° 270.89° 3.00° 230 ft / 70 m (AMSL)
27 DME TAB 110.70 MHz 18 nm / 33 km - - - 252 ft / 77 m (AMSL)

Map

Weather


0- 5 10 15 20 25 30 35+ Temperature / ° C

Clouds and Precipitation
Forecast for 2017-12-16 12:00 UTC. Updated 2 hours ago

Ground ~20,000 ft ~40,000 ft Winds

METAR

DTKA 161100Z 20003KT 8000 -RA SCT020 BKN030 12/11 Q1012 NOSIG

TAF

Not found

Frequencies

Tower 119.25 MHz TWR
Approach 119.25 MHz APP
Warning: Do not use this data for real-world aviation or navigation. No guarantee of current accuracy is given.